Beverly Hills, CA

2:16 PM PST on January 31, 2015 (GMT -0800)
Burbank-Glendale-Pasadena | Change Station
CLOSE
Current Station
Airport
Location: Burbank,
Elevation: 774 ft
Nearby Weather Stations

Elev 774 ft 34.20 °N, 118.36 °W | Updated 23 minutes ago

Clear
Clear
71 °F
Feels Like 71 °F
N
12
Wind Variable Wind from NNE
Gusts 18 mph

Today
High -- | Low -- °F
--% Chance of Precip.
Yesterday
High -- | Low -- °F
Precip. -- in
6:51 AM 5:22 PM
Waxing Gibbous, 91% visible
Pressure 29.84 in
Visibility 10.0 miles
Clouds Scattered Clouds 8000 ft
Dew Point 39 °F
Humidity 31%
Rainfall 0.01 in
Snow Depth Not available.
UV 3 out of 12
Pollen 6.90 out of 12
Air Quality Not available.
Flu Activity Not available.
METAR KBUR 312153Z 02010G16KT 10SM SCT080 22/04 A2987 RMK AO2 SLP105 T02170039

More Conditions Fewer Conditions

Pressure 29.84 in
Visibility 10.0 miles
Clouds Scattered Clouds 8000 ft
Dew Point 39 °F
Humidity 31%
Rainfall 0.01 in
Snow Depth Not available.
UV 3 out of 12
Pollen 6.90 out of 12
Air Quality Not available.
Flu Activity Not available.
METAR KBUR 312153Z 02010G16KT 10SM SCT080 22/04 A2987 RMK AO2 SLP105 T02170039

More Conditions Fewer Conditions

10-Day Weather Forecast

Almanac

Astronomy

Jan. 31, 2015 Rise Set
Actual Time
Civil Twilight
Nautical Twilight
Astronomical Twilight
Moon
Length of Visible Light
Length of Day
Tomorrow will be .
, % of the Moon is Illuminated

Today's Extremes

State Highs State Lows

Community

WunderPhotos

Upload Photos

1,792,222 photos uploaded!

WunderBlogs® & News

Nearby

Air Quality

  Air Quality AQ Index Pollutant
Not available.

Snow Depth

Station Depth Elevation

Earthquake Activity

City Distance Mag. Time & Date
Minimum magnitude displayed is 2.5.

Coastal Water Temperatures

Place Temperature

Nearby Weather Stations